sensor_id;sensor_type;location;lat;lon;timestamp;pressure;altitude;pressure_sealevel;temperature;humidity
21433;BME280;18592;49.708;10.900;2023-04-23T00:00:16;97917.56;;;20.63;38.27
21433;BME280;18592;49.708;10.900;2023-04-23T00:02:19;97912.38;;;20.61;38.27
21433;BME280;18592;49.708;10.900;2023-04-23T00:04:24;97905.19;;;20.60;38.83
21433;BME280;18592;49.708;10.900;2023-04-23T00:06:36;97911.84;;;20.59;38.41
21433;BME280;18592;49.708;10.900;2023-04-23T00:08:39;97913.69;;;20.55;38.68
21433;BME280;18592;49.708;10.900;2023-04-23T00:10:50;97908.78;;;20.52;38.95
21433;BME280;18592;49.708;10.900;2023-04-23T00:12:55;97910.94;;;20.47;38.75
21433;BME280;18592;49.708;10.900;2023-04-23T00:15:00;97907.69;;;20.45;38.59
21433;BME280;18592;49.708;10.900;2023-04-23T00:17:02;97897.25;;;20.42;38.67
21433;BME280;18592;49.708;10.900;2023-04-23T00:19:05;97903.50;;;20.39;38.93
21433;BME280;18592;49.708;10.900;2023-04-23T00:21:07;97902.66;;;20.38;38.90
21433;BME280;18592;49.708;10.900;2023-04-23T00:23:11;97908.69;;;20.32;38.98
21433;BME280;18592;49.708;10.900;2023-04-23T00:25:15;97897.63;;;20.32;38.84
21433;BME280;18592;49.708;10.900;2023-04-23T00:27:16;97902.38;;;20.31;38.83
21433;BME280;18592;49.708;10.900;2023-04-23T00:29:18;97899.59;;;20.31;38.78
21433;BME280;18592;49.708;10.900;2023-04-23T00:31:20;97893.09;;;20.27;38.73
21433;BME280;18592;49.708;10.900;2023-04-23T00:33:23;97891.47;;;20.26;39.11
21433;BME280;18592;49.708;10.900;2023-04-23T00:35:24;97890.19;;;20.23;38.65
21433;BME280;18592;49.708;10.900;2023-04-23T00:37:30;97899.59;;;20.22;39.00
21433;BME280;18592;49.708;10.900;2023-04-23T00:39:33;97894.56;;;20.16;39.32
21433;BME280;18592;49.708;10.900;2023-04-23T00:41:38;97894.41;;;20.12;39.11
21433;BME280;18592;49.708;10.900;2023-04-23T00:43:44;97891.00;;;20.07;39.76
21433;BME280;18592;49.708;10.900;2023-04-23T00:45:46;97898.00;;;20.04;39.31
21433;BME280;18592;49.708;10.900;2023-04-23T00:47:52;97895.22;;;20.04;39.31
21433;BME280;18592;49.708;10.900;2023-04-23T00:49:55;97895.56;;;20.03;39.40
21433;BME280;18592;49.708;10.900;2023-04-23T00:51:58;97898.34;;;20.03;39.50
21433;BME280;18592;49.708;10.900;2023-04-23T00:54:04;97904.50;;;20.00;40.03
21433;BME280;18592;49.708;10.900;2023-04-23T00:56:09;97907.78;;;19.93;39.50
21433;BME280;18592;49.708;10.900;2023-04-23T00:58:11;97903.38;;;19.92;39.38
21433;BME280;18592;49.708;10.900;2023-04-23T01:00:12;97906.50;;;19.91;39.43
21433;BME280;18592;49.708;10.900;2023-04-23T01:02:24;97899.31;;;19.90;39.02
21433;BME280;18592;49.708;10.900;2023-04-23T01:04:29;97902.09;;;19.90;38.98
21433;BME280;18592;49.708;10.900;2023-04-23T01:06:32;97899.66;;;19.88;38.65
21433;BME280;18592;49.708;10.900;2023-04-23T01:08:34;97899.00;;;19.83;38.86
21433;BME280;18592;49.708;10.900;2023-04-23T01:10:38;97905.19;;;19.80;39.11
21433;BME280;18592;49.708;10.900;2023-04-23T01:12:40;97909.91;;;19.79;39.03
21433;BME280;18592;49.708;10.900;2023-04-23T01:14:42;97910.25;;;19.78;38.99
21433;BME280;18592;49.708;10.900;2023-04-23T01:16:46;97904.88;;;19.73;38.96
21433;BME280;18592;49.708;10.900;2023-04-23T01:18:51;97909.09;;;19.70;39.21
21433;BME280;18592;49.708;10.900;2023-04-23T01:20:55;97908.28;;;19.70;38.72
21433;BME280;18592;49.708;10.900;2023-04-23T01:23:00;97907.81;;;19.68;38.96
21433;BME280;18592;49.708;10.900;2023-04-23T01:25:02;97913.50;;;19.62;39.22
21433;BME280;18592;49.708;10.900;2023-04-23T01:27:04;97912.19;;;19.60;39.09
21433;BME280;18592;49.708;10.900;2023-04-23T01:29:06;97913.97;;;19.56;39.69
21433;BME280;18592;49.708;10.900;2023-04-23T01:31:08;97921.31;;;19.52;39.61
21433;BME280;18592;49.708;10.900;2023-04-23T01:33:13;97914.47;;;19.49;39.84
21433;BME280;18592;49.708;10.900;2023-04-23T01:35:15;97915.75;;;19.43;40.11
21433;BME280;18592;49.708;10.900;2023-04-23T01:37:17;97916.91;;;19.42;40.14
21433;BME280;18592;49.708;10.900;2023-04-23T01:39:19;97911.03;;;19.44;39.60
21433;BME280;18592;49.708;10.900;2023-04-23T01:41:23;97908.25;;;19.35;39.76
21433;BME280;18592;49.708;10.900;2023-04-23T01:43:25;97896.06;;;19.36;39.92
21433;BME280;18592;49.708;10.900;2023-04-23T01:45:27;97894.56;;;19.30;40.11
21433;BME280;18592;49.708;10.900;2023-04-23T01:47:31;97895.38;;;19.31;39.61
21433;BME280;18592;49.708;10.900;2023-04-23T01:49:34;97891.31;;;19.28;39.94
21433;BME280;18592;49.708;10.900;2023-04-23T01:51:36;97891.66;;;19.27;40.21
21433;BME280;18592;49.708;10.900;2023-04-23T01:53:37;97884.00;;;19.24;40.72
21433;BME280;18592;49.708;10.900;2023-04-23T01:55:40;97896.69;;;19.25;40.10
21433;BME280;18592;49.708;10.900;2023-04-23T01:57:44;97896.53;;;19.21;39.97
21433;BME280;18592;49.708;10.900;2023-04-23T01:59:45;97901.06;;;19.17;40.41
21433;BME280;18592;49.708;10.900;2023-04-23T02:01:47;97909.66;;;19.16;40.40
21433;BME280;18592;49.708;10.900;2023-04-23T02:03:50;97903.66;;;19.14;40.24
21433;BME280;18592;49.708;10.900;2023-04-23T02:05:52;97915.53;;;19.14;40.44
21433;BME280;18592;49.708;10.900;2023-04-23T02:07:55;97909.53;;;19.12;40.52
21433;BME280;18592;49.708;10.900;2023-04-23T02:09:57;97902.34;;;19.11;40.68
21433;BME280;18592;49.708;10.900;2023-04-23T02:12:02;97908.53;;;19.08;41.19
21433;BME280;18592;49.708;10.900;2023-04-23T02:14:13;97900.88;;;19.05;40.67
21433;BME280;18592;49.708;10.900;2023-04-23T02:16:15;97908.66;;;19.03;40.68
21433;BME280;18592;49.708;10.900;2023-04-23T02:18:16;97909.81;;;19.02;40.69
21433;BME280;18592;49.708;10.900;2023-04-23T02:20:18;97906.25;;;19.01;40.96
21433;BME280;18592;49.708;10.900;2023-04-23T02:22:21;97907.84;;;19.02;40.89
21433;BME280;18592;49.708;10.900;2023-04-23T02:24:25;97917.44;;;18.96;40.85
21433;BME280;18592;49.708;10.900;2023-04-23T02:26:26;97907.22;;;18.97;40.57
21433;BME280;18592;49.708;10.900;2023-04-23T02:28:31;97904.44;;;18.97;40.71
21433;BME280;18592;49.708;10.900;2023-04-23T02:30:34;97908.81;;;18.98;40.35
21433;BME280;18592;49.708;10.900;2023-04-23T02:32:36;97912.75;;;18.97;40.75
21433;BME280;18592;49.708;10.900;2023-04-23T02:34:38;97916.63;;;18.96;40.81
21433;BME280;18592;49.708;10.900;2023-04-23T02:36:41;97916.63;;;18.96;40.59
21433;BME280;18592;49.708;10.900;2023-04-23T02:38:42;97911.91;;;18.96;40.19
21433;BME280;18592;49.708;10.900;2023-04-23T02:40:45;97912.22;;;18.95;40.27
21433;BME280;18592;49.708;10.900;2023-04-23T02:42:48;97912.38;;;18.90;40.92
21433;BME280;18592;49.708;10.900;2023-04-23T02:44:50;97917.09;;;18.89;40.54
21433;BME280;18592;49.708;10.900;2023-04-23T02:46:52;97919.03;;;18.89;40.16
21433;BME280;18592;49.708;10.900;2023-04-23T02:48:53;97927.34;;;18.89;40.08
21433;BME280;18592;49.708;10.900;2023-04-23T02:50:55;97932.84;;;18.89;40.04
21433;BME280;18592;49.708;10.900;2023-04-23T02:52:57;97928.44;;;18.88;40.39
21433;BME280;18592;49.708;10.900;2023-04-23T02:54:59;97925.69;;;18.88;40.12
21433;BME280;18592;49.708;10.900;2023-04-23T02:57:03;97933.00;;;18.84;40.02
21433;BME280;18592;49.708;10.900;2023-04-23T02:59:07;97936.88;;;18.83;40.09
21433;BME280;18592;49.708;10.900;2023-04-23T03:01:09;97939.66;;;18.83;40.03
21433;BME280;18592;49.708;10.900;2023-04-23T03:03:11;97943.56;;;18.82;39.99
21433;BME280;18592;49.708;10.900;2023-04-23T03:05:16;97946.63;;;18.80;39.86
21433;BME280;18592;49.708;10.900;2023-04-23T03:07:17;97939.78;;;18.78;40.18
21433;BME280;18592;49.708;10.900;2023-04-23T03:09:19;97952.00;;;18.77;40.12
21433;BME280;18592;49.708;10.900;2023-04-23T03:11:21;97955.03;;;18.75;40.51
21433;BME280;18592;49.708;10.900;2023-04-23T03:13:24;97947.72;;;18.71;40.74
21433;BME280;18592;49.708;10.900;2023-04-23T03:15:29;97950.50;;;18.71;40.60
21433;BME280;18592;49.708;10.900;2023-04-23T03:17:38;97946.41;;;18.68;40.43
21433;BME280;18592;49.708;10.900;2023-04-23T03:19:40;97951.13;;;18.68;40.40
21433;BME280;18592;49.708;10.900;2023-04-23T03:21:42;97955.53;;;18.69;40.20
21433;BME280;18592;49.708;10.900;2023-04-23T03:23:44;97951.13;;;18.68;40.50
21433;BME280;18592;49.708;10.900;2023-04-23T03:25:48;97949.00;;;18.65;40.44
21433;BME280;18592;49.708;10.900;2023-04-23T03:27:49;97946.22;;;18.65;40.41
21433;BME280;18592;49.708;10.900;2023-04-23T03:29:52;97946.88;;;18.62;40.71
21433;BME280;18592;49.708;10.900;2023-04-23T03:31:54;97944.91;;;18.62;40.26
21433;BME280;18592;49.708;10.900;2023-04-23T03:33:55;97957.09;;;18.61;40.28
21433;BME280;18592;49.708;10.900;2023-04-23T03:36:04;97945.25;;;18.61;40.26
21433;BME280;18592;49.708;10.900;2023-04-23T03:38:06;97942.47;;;18.61;40.39
21433;BME280;18592;49.708;10.900;2023-04-23T03:40:13;97953.84;;;18.59;40.18
21433;BME280;18592;49.708;10.900;2023-04-23T03:42:17;97953.84;;;18.59;40.29
21433;BME280;18592;49.708;10.900;2023-04-23T03:44:18;97951.09;;;18.59;40.38
21433;BME280;18592;49.708;10.900;2023-04-23T03:46:23;97951.72;;;18.56;40.65
21433;BME280;18592;49.708;10.900;2023-04-23T03:48:26;97959.69;;;18.58;40.38
21433;BME280;18592;49.708;10.900;2023-04-23T03:50:28;97956.44;;;18.56;40.25
21433;BME280;18592;49.708;10.900;2023-04-23T03:52:45;97964.22;;;18.54;40.77
21433;BME280;18592;49.708;10.900;2023-04-23T03:54:56;97962.56;;;18.53;40.47
21433;BME280;18592;49.708;10.900;2023-04-23T03:57:03;97957.38;;;18.51;40.65
21433;BME280;18592;49.708;10.900;2023-04-23T03:59:12;97957.69;;;18.50;40.68
21433;BME280;18592;49.708;10.900;2023-04-23T04:01:17;97959.66;;;18.49;40.73
21433;BME280;18592;49.708;10.900;2023-04-23T04:03:22;97957.69;;;18.50;40.57
21433;BME280;18592;49.708;10.900;2023-04-23T04:05:24;97970.69;;;18.49;40.52
21433;BME280;18592;49.708;10.900;2023-04-23T04:07:27;97969.06;;;18.48;40.30
21433;BME280;18592;49.708;10.900;2023-04-23T04:09:29;97962.19;;;18.46;40.66
21433;BME280;18592;49.708;10.900;2023-04-23T04:11:34;97968.81;;;18.45;40.61
21433;BME280;18592;49.708;10.900;2023-04-23T04:13:37;97969.97;;;18.44;40.77
21433;BME280;18592;49.708;10.900;2023-04-23T04:15:41;97972.25;;;18.42;40.71
21433;BME280;18592;49.708;10.900;2023-04-23T04:17:43;97978.88;;;18.40;40.80
21433;BME280;18592;49.708;10.900;2023-04-23T04:19:46;97968.16;;;18.39;40.90
21433;BME280;18592;49.708;10.900;2023-04-23T04:21:51;97968.47;;;18.37;40.65
21433;BME280;18592;49.708;10.900;2023-04-23T04:23:58;97966.84;;;18.36;40.94
21433;BME280;18592;49.708;10.900;2023-04-23T04:26:01;97971.84;;;18.34;40.89
21433;BME280;18592;49.708;10.900;2023-04-23T04:28:06;97978.53;;;18.33;41.43
21433;BME280;18592;49.708;10.900;2023-04-23T04:30:09;97987.63;;;18.34;41.19
21433;BME280;18592;49.708;10.900;2023-04-23T04:32:11;97975.75;;;18.33;40.84
21433;BME280;18592;49.708;10.900;2023-04-23T04:34:14;97978.53;;;18.33;40.86
21433;BME280;18592;49.708;10.900;2023-04-23T04:36:16;97976.06;;;18.32;41.19
21433;BME280;18592;49.708;10.900;2023-04-23T04:38:24;97978.03;;;18.31;41.06
21433;BME280;18592;49.708;10.900;2023-04-23T04:40:27;97984.34;;;18.32;40.83
21433;BME280;18592;49.708;10.900;2023-04-23T04:42:29;97987.41;;;18.30;41.20
21433;BME280;18592;49.708;10.900;2023-04-23T04:44:33;97979.47;;;18.29;40.82
21433;BME280;18592;49.708;10.900;2023-04-23T04:46:38;97982.53;;;18.27;41.23
21433;BME280;18592;49.708;10.900;2023-04-23T04:48:42;97985.28;;;18.27;41.06
21433;BME280;18592;49.708;10.900;2023-04-23T04:50:43;97989.19;;;18.26;41.05
21433;BME280;18592;49.708;10.900;2023-04-23T04:52:48;97984.78;;;18.25;41.00
21433;BME280;18592;49.708;10.900;2023-04-23T04:54:49;97992.56;;;18.23;41.16
21433;BME280;18592;49.708;10.900;2023-04-23T04:56:51;97989.81;;;18.23;41.40
21433;BME280;18592;49.708;10.900;2023-04-23T04:58:53;97985.41;;;18.22;41.48
21433;BME280;18592;49.708;10.900;2023-04-23T05:00:54;97989.31;;;18.21;41.14
21433;BME280;18592;49.708;10.900;2023-04-23T05:02:58;97996.28;;;18.19;41.46
21433;BME280;18592;49.708;10.900;2023-04-23T05:05:00;97997.91;;;18.20;41.54
21433;BME280;18592;49.708;10.900;2023-04-23T05:07:02;98000.34;;;18.21;41.80
21433;BME280;18592;49.708;10.900;2023-04-23T05:09:03;97995.63;;;18.22;41.61
21433;BME280;18592;49.708;10.900;2023-04-23T05:11:08;98000.16;;;18.18;41.70
21433;BME280;18592;49.708;10.900;2023-04-23T05:13:13;98002.41;;;18.16;41.76
21433;BME280;18592;49.708;10.900;2023-04-23T05:15:14;98009.88;;;18.15;42.17
21433;BME280;18592;49.708;10.900;2023-04-23T05:17:19;98008.75;;;18.16;41.68
21433;BME280;18592;49.708;10.900;2023-04-23T05:19:20;98009.56;;;18.17;41.61
21433;BME280;18592;49.708;10.900;2023-04-23T05:21:24;98015.88;;;18.17;41.66
21433;BME280;18592;49.708;10.900;2023-04-23T05:23:28;98022.22;;;18.18;41.67
21433;BME280;18592;49.708;10.900;2023-04-23T05:25:29;98012.84;;;18.19;41.57
21433;BME280;18592;49.708;10.900;2023-04-23T05:27:34;98021.91;;;18.19;41.53
21433;BME280;18592;49.708;10.900;2023-04-23T05:29:36;98016.09;;;18.21;41.48
21433;BME280;18592;49.708;10.900;2023-04-23T05:31:37;98011.41;;;18.21;41.74
21433;BME280;18592;49.708;10.900;2023-04-23T05:33:47;98018.84;;;18.21;41.62
21433;BME280;18592;49.708;10.900;2023-04-23T05:35:51;98010.56;;;18.21;41.59
21433;BME280;18592;49.708;10.900;2023-04-23T05:37:52;98011.06;;;18.23;41.63
21433;BME280;18592;49.708;10.900;2023-04-23T05:39:54;98012.19;;;18.22;41.54
21433;BME280;18592;49.708;10.900;2023-04-23T05:41:56;98012.84;;;18.19;41.76
21433;BME280;18592;49.708;10.900;2023-04-23T05:43:58;98019.16;;;18.19;41.47
21433;BME280;18592;49.708;10.900;2023-04-23T05:46:00;98016.91;;;18.21;41.74
21433;BME280;18592;49.708;10.900;2023-04-23T05:48:03;98018.03;;;18.20;41.46
21433;BME280;18592;49.708;10.900;2023-04-23T05:50:05;98027.13;;;18.21;41.72
21433;BME280;18592;49.708;10.900;2023-04-23T05:52:07;98023.06;;;18.18;41.71
21433;BME280;18592;49.708;10.900;2023-04-23T05:54:12;98016.38;;;18.19;41.66
21433;BME280;18592;49.708;10.900;2023-04-23T05:56:17;98019.78;;;18.16;41.63
21433;BME280;18592;49.708;10.900;2023-04-23T05:58:19;98019.16;;;18.19;41.60
21433;BME280;18592;49.708;10.900;2023-04-23T06:00:22;98026.94;;;18.17;41.42
21433;BME280;18592;49.708;10.900;2023-04-23T06:02:24;98026.94;;;18.17;41.67
21433;BME280;18592;49.708;10.900;2023-04-23T06:04:26;98026.94;;;18.17;41.62
21433;BME280;18592;49.708;10.900;2023-04-23T06:06:28;98028.06;;;18.16;41.73
21433;BME280;18592;49.708;10.900;2023-04-23T06:08:32;98028.38;;;18.15;42.00
21433;BME280;18592;49.708;10.900;2023-04-23T06:10:34;98033.25;;;18.18;41.52
21433;BME280;18592;49.708;10.900;2023-04-23T06:12:36;98040.72;;;18.17;41.77
21433;BME280;18592;49.708;10.900;2023-04-23T06:14:39;98037.66;;;18.19;42.00
21433;BME280;18592;49.708;10.900;2023-04-23T06:16:47;98045.94;;;18.19;42.21
21433;BME280;18592;49.708;10.900;2023-04-23T06:18:51;98043.97;;;18.19;42.29
21433;BME280;18592;49.708;10.900;2023-04-23T06:20:53;98039.59;;;18.18;42.35
21433;BME280;18592;49.708;10.900;2023-04-23T06:23:02;98043.19;;;18.19;42.24
21433;BME280;18592;49.708;10.900;2023-04-23T06:25:04;98036.03;;;18.18;42.12
21433;BME280;18592;49.708;10.900;2023-04-23T06:27:06;98037.00;;;18.22;42.08
21433;BME280;18592;49.708;10.900;2023-04-23T06:29:12;98033.75;;;18.20;42.29
21433;BME280;18592;49.708;10.900;2023-04-23T06:31:24;98038.97;;;18.21;42.45
21433;BME280;18592;49.708;10.900;2023-04-23T06:33:26;98038.66;;;18.23;42.23
21433;BME280;18592;49.708;10.900;2023-04-23T06:35:28;98042.72;;;18.25;42.38
21433;BME280;18592;49.708;10.900;2023-04-23T06:37:30;98036.59;;;18.28;42.51
21433;BME280;18592;49.708;10.900;2023-04-23T06:39:32;98041.50;;;18.31;42.20
21433;BME280;18592;49.708;10.900;2023-04-23T06:41:35;98042.00;;;18.33;42.41
21433;BME280;18592;49.708;10.900;2023-04-23T06:43:55;98033.72;;;18.33;42.34
21433;BME280;18592;49.708;10.900;2023-04-23T06:46:05;98027.88;;;18.35;42.41
21433;BME280;18592;49.708;10.900;2023-04-23T06:48:17;98040.53;;;18.36;42.52
21433;BME280;18592;49.708;10.900;2023-04-23T06:50:19;98031.13;;;18.37;42.40
21433;BME280;18592;49.708;10.900;2023-04-23T06:52:24;98040.22;;;18.37;42.30
21433;BME280;18592;49.708;10.900;2023-04-23T06:54:28;98037.47;;;18.37;42.41
21433;BME280;18592;49.708;10.900;2023-04-23T06:56:30;98030.00;;;18.38;42.66
21433;BME280;18592;49.708;10.900;2023-04-23T06:58:31;98033.59;;;18.38;42.46
21433;BME280;18592;49.708;10.900;2023-04-23T07:00:35;98026.63;;;18.41;42.73
21433;BME280;18592;49.708;10.900;2023-04-23T07:02:37;98024.69;;;18.42;42.23
21433;BME280;18592;49.708;10.900;2023-04-23T07:04:40;98017.50;;;18.40;42.39
21433;BME280;18592;49.708;10.900;2023-04-23T07:06:42;98021.25;;;18.45;42.72
21433;BME280;18592;49.708;10.900;2023-04-23T07:08:45;98017.09;;;18.47;42.36
21433;BME280;18592;49.708;10.900;2023-04-23T07:10:47;98017.09;;;18.47;42.58
21433;BME280;18592;49.708;10.900;2023-04-23T07:12:49;98018.72;;;18.48;42.59
21433;BME280;18592;49.708;10.900;2023-04-23T07:14:53;98027.84;;;18.49;42.62
21433;BME280;18592;49.708;10.900;2023-04-23T07:16:55;98021.69;;;18.52;42.45
21433;BME280;18592;49.708;10.900;2023-04-23T07:18:56;98024.31;;;18.57;42.63
21433;BME280;18592;49.708;10.900;2023-04-23T07:21:01;98024.81;;;18.59;42.71
21433;BME280;18592;49.708;10.900;2023-04-23T07:23:03;98026.94;;;18.62;42.72
21433;BME280;18592;49.708;10.900;2023-04-23T07:25:05;98023.53;;;18.65;42.76
21433;BME280;18592;49.708;10.900;2023-04-23T07:27:10;98027.31;;;18.69;42.84
21433;BME280;18592;49.708;10.900;2023-04-23T07:29:12;98027.78;;;18.71;42.92
21433;BME280;18592;49.708;10.900;2023-04-23T07:31:14;98032.38;;;18.75;42.75
21433;BME280;18592;49.708;10.900;2023-04-23T07:33:16;98031.25;;;18.76;42.76
21433;BME280;18592;49.708;10.900;2023-04-23T07:35:18;98035.81;;;18.81;43.02
21433;BME280;18592;49.708;10.900;2023-04-23T07:37:20;98030.16;;;18.86;42.83
21433;BME280;18592;49.708;10.900;2023-04-23T07:39:22;98021.41;;;18.92;43.00
21433;BME280;18592;49.708;10.900;2023-04-23T07:41:24;98017.69;;;18.97;42.92
21433;BME280;18592;49.708;10.900;2023-04-23T07:43:26;98017.72;;;19.06;43.05
21433;BME280;18592;49.708;10.900;2023-04-23T07:45:28;98018.41;;;19.11;42.67
21433;BME280;18592;49.708;10.900;2023-04-23T07:47:30;98017.13;;;19.17;43.17
21433;BME280;18592;49.708;10.900;2023-04-23T07:49:34;98021.06;;;19.25;42.86
21433;BME280;18592;49.708;10.900;2023-04-23T07:51:36;98018.94;;;19.30;42.75
21433;BME280;18592;49.708;10.900;2023-04-23T07:53:43;98019.81;;;19.39;42.63
21433;BME280;18592;49.708;10.900;2023-04-23T07:55:47;98013.03;;;19.45;43.08
21433;BME280;18592;49.708;10.900;2023-04-23T07:57:51;98007.19;;;19.55;43.00
21433;BME280;18592;49.708;10.900;2023-04-23T07:59:52;98008.34;;;19.63;43.23
21433;BME280;18592;49.708;10.900;2023-04-23T08:01:57;98008.81;;;19.74;42.72
21433;BME280;18592;49.708;10.900;2023-04-23T08:04:01;98002.19;;;19.83;42.80
21433;BME280;18592;49.708;10.900;2023-04-23T08:06:04;97996.31;;;19.93;42.99
21433;BME280;18592;49.708;10.900;2023-04-23T08:08:06;97994.00;;;20.04;42.70
21433;BME280;18592;49.708;10.900;2023-04-23T08:10:09;97998.91;;;20.15;42.96
21433;BME280;18592;49.708;10.900;2023-04-23T08:12:13;97991.59;;;20.28;43.09
21433;BME280;18592;49.708;10.900;2023-04-23T08:14:14;97990.59;;;20.41;43.08
21433;BME280;18592;49.708;10.900;2023-04-23T08:16:16;97994.31;;;20.54;43.22
21433;BME280;18592;49.708;10.900;2023-04-23T08:18:20;97987.44;;;20.68;43.19
21433;BME280;18592;49.708;10.900;2023-04-23T08:20:22;97985.25;;;20.82;43.38
21433;BME280;18592;49.708;10.900;2023-04-23T08:22:23;97994.66;;;20.99;43.37
21433;BME280;18592;49.708;10.900;2023-04-23T08:24:25;97991.38;;;21.14;43.54
21433;BME280;18592;49.708;10.900;2023-04-23T08:26:27;97987.38;;;21.32;43.53
21433;BME280;18592;49.708;10.900;2023-04-23T08:28:29;97984.94;;;21.51;43.46
21433;BME280;18592;49.708;10.900;2023-04-23T08:30:35;97996.06;;;21.72;43.07
21433;BME280;18592;49.708;10.900;2023-04-23T08:32:43;97993.88;;;21.86;43.23
21433;BME280;18592;49.708;10.900;2023-04-23T08:34:44;97992.00;;;21.98;42.96
21433;BME280;18592;49.708;10.900;2023-04-23T08:36:48;97989.13;;;22.07;42.50
21433;BME280;18592;49.708;10.900;2023-04-23T08:38:50;97994.16;;;22.13;42.52
21433;BME280;18592;49.708;10.900;2023-04-23T08:40:56;97995.09;;;22.18;42.04
21433;BME280;18592;49.708;10.900;2023-04-23T08:43:08;97991.63;;;22.21;41.87
21433;BME280;18592;49.708;10.900;2023-04-23T08:45:11;97987.69;;;22.22;41.80
21433;BME280;18592;49.708;10.900;2023-04-23T08:47:17;97984.25;;;22.25;41.77
21433;BME280;18592;49.708;10.900;2023-04-23T08:49:19;97989.13;;;22.28;41.68
21433;BME280;18592;49.708;10.900;2023-04-23T08:51:24;97985.31;;;22.32;41.71
21433;BME280;18592;49.708;10.900;2023-04-23T08:53:29;97983.97;;;22.38;41.89
21433;BME280;18592;49.708;10.900;2023-04-23T08:55:33;97980.75;;;22.48;41.75
21433;BME280;18592;49.708;10.900;2023-04-23T08:57:37;97978.69;;;22.57;41.76
21433;BME280;18592;49.708;10.900;2023-04-23T08:59:40;97973.06;;;22.66;41.62
21433;BME280;18592;49.708;10.900;2023-04-23T09:01:42;97979.34;;;22.75;41.68
21433;BME280;18592;49.708;10.900;2023-04-23T09:03:45;97976.56;;;22.87;41.81
21433;BME280;18592;49.708;10.900;2023-04-23T09:05:47;97976.25;;;23.01;41.88
21433;BME280;18592;49.708;10.900;2023-04-23T09:07:55;97965.59;;;23.15;41.77
21433;BME280;18592;49.708;10.900;2023-04-23T09:09:58;97966.19;;;23.32;41.74
21433;BME280;18592;49.708;10.900;2023-04-23T09:12:03;97963.50;;;23.48;42.06
21433;BME280;18592;49.708;10.900;2023-04-23T09:14:06;97971.97;;;23.64;41.76
21433;BME280;18592;49.708;10.900;2023-04-23T09:16:08;97966.94;;;23.81;41.96
21433;BME280;18592;49.708;10.900;2023-04-23T09:18:14;97965.03;;;23.97;41.97
21433;BME280;18592;49.708;10.900;2023-04-23T09:20:17;97964.78;;;24.15;41.95
21433;BME280;18592;49.708;10.900;2023-04-23T09:24:42;97954.19;;;24.48;41.48
21433;BME280;18592;49.708;10.900;2023-04-23T09:26:48;97964.19;;;24.64;41.86
21433;BME280;18592;49.708;10.900;2023-04-23T09:28:51;97961.81;;;24.79;41.83
21433;BME280;18592;49.708;10.900;2023-04-23T09:30:53;97961.03;;;24.94;41.37
21433;BME280;18592;49.708;10.900;2023-04-23T09:32:54;97968.19;;;25.10;41.34
21433;BME280;18592;49.708;10.900;2023-04-23T09:34:56;97961.81;;;25.25;40.77
21433;BME280;18592;49.708;10.900;2023-04-23T09:36:58;97952.16;;;25.39;40.69
21433;BME280;18592;49.708;10.900;2023-04-23T09:39:00;97954.53;;;25.52;40.53
21433;BME280;18592;49.708;10.900;2023-04-23T09:41:25;97954.00;;;25.66;40.79
21433;BME280;18592;49.708;10.900;2023-04-23T09:43:29;97941.19;;;25.80;40.86
21433;BME280;18592;49.708;10.900;2023-04-23T09:45:30;97950.69;;;25.95;40.46
21433;BME280;18592;49.708;10.900;2023-04-23T09:47:37;97941.78;;;26.09;40.50
21433;BME280;18592;49.708;10.900;2023-04-23T09:49:49;97940.56;;;26.25;40.31
21433;BME280;18592;49.708;10.900;2023-04-23T09:51:50;97937.69;;;26.41;40.36
21433;BME280;18592;49.708;10.900;2023-04-23T09:53:52;97931.19;;;26.56;40.07
21433;BME280;18592;49.708;10.900;2023-04-23T09:56:00;97927.84;;;26.70;39.64
21433;BME280;18592;49.708;10.900;2023-04-23T09:58:06;97933.34;;;26.85;39.60
21433;BME280;18592;49.708;10.900;2023-04-23T10:00:14;97932.41;;;27.00;39.71
21433;BME280;18592;49.708;10.900;2023-04-23T10:02:17;97940.69;;;27.16;39.72
21433;BME280;18592;49.708;10.900;2023-04-23T10:04:22;97920.53;;;27.30;39.59
21433;BME280;18592;49.708;10.900;2023-04-23T10:06:26;97919.56;;;27.45;39.71
21433;BME280;18592;49.708;10.900;2023-04-23T10:08:48;97913.00;;;27.60;39.49
21433;BME280;18592;49.708;10.900;2023-04-23T10:10:49;97912.38;;;27.73;39.69
21433;BME280;18592;49.708;10.900;2023-04-23T10:13:10;97908.22;;;27.90;39.48
21433;BME280;18592;49.708;10.900;2023-04-23T10:15:12;97914.00;;;28.04;39.22
21433;BME280;18592;49.708;10.900;2023-04-23T10:17:15;97909.34;;;28.15;38.70
21433;BME280;18592;49.708;10.900;2023-04-23T10:19:22;97916.63;;;28.20;38.30
21433;BME280;18592;49.708;10.900;2023-04-23T10:21:25;97908.63;;;28.22;38.12
21433;BME280;18592;49.708;10.900;2023-04-23T10:23:37;97905.81;;;28.22;37.83
21433;BME280;18592;49.708;10.900;2023-04-23T10:25:41;97910.19;;;28.19;37.38
21433;BME280;18592;49.708;10.900;2023-04-23T10:27:44;97909.34;;;28.15;37.33
21433;BME280;18592;49.708;10.900;2023-04-23T10:29:56;97903.31;;;28.13;37.09
21433;BME280;18592;49.708;10.900;2023-04-23T10:32:05;97911.69;;;28.10;36.58
21433;BME280;18592;49.708;10.900;2023-04-23T10:34:09;97910.88;;;28.09;36.78
21433;BME280;18592;49.708;10.900;2023-04-23T10:36:11;97902.81;;;28.04;36.49
21433;BME280;18592;49.708;10.900;2023-04-23T10:38:14;97896.34;;;28.00;36.31
21433;BME280;18592;49.708;10.900;2023-04-23T10:40:29;97897.44;;;27.96;35.79
21433;BME280;18592;49.708;10.900;2023-04-23T10:42:32;97899.03;;;27.93;35.91
21433;BME280;18592;49.708;10.900;2023-04-23T10:44:37;97902.97;;;27.89;35.72
21433;BME280;18592;49.708;10.900;2023-04-23T10:46:53;97896.56;;;27.88;36.22
21433;BME280;18592;49.708;10.900;2023-04-23T10:49:11;97891.75;;;27.85;35.96